createdAt,value
2022-08-18T00:01:49.183Z,100.00
2022-08-18T00:04:42.665Z,100.00
2022-08-18T00:07:37.280Z,100.00
2022-08-18T00:10:24.953Z,100.00
2022-08-18T00:13:12.663Z,100.00
2022-08-18T00:15:59.956Z,100.00
2022-08-18T00:18:47.074Z,100.00
2022-08-18T00:21:34.718Z,100.00
2022-08-18T00:24:21.896Z,100.00
2022-08-18T00:27:12.520Z,100.00
2022-08-18T00:30:07.507Z,100.00
2022-08-18T00:32:57.067Z,100.00
2022-08-18T00:35:44.104Z,100.00
2022-08-18T00:38:32.694Z,100.00
2022-08-18T00:41:21.528Z,100.00
2022-08-18T00:44:08.830Z,100.00
2022-08-18T00:46:56.166Z,100.00
2022-08-18T00:49:46.146Z,100.00
2022-08-18T00:52:34.082Z,100.00
2022-08-18T00:55:22.910Z,100.00
2022-08-18T00:58:16.005Z,100.00
2022-08-18T01:01:05.977Z,100.00
2022-08-18T01:04:00.729Z,100.00
2022-08-18T01:06:58.216Z,100.00
2022-08-18T01:09:45.378Z,100.00
2022-08-18T01:12:45.187Z,100.00
2022-08-18T01:15:34.651Z,100.00
2022-08-18T01:18:40.430Z,100.00
2022-08-18T01:21:49.015Z,100.00
2022-08-18T01:24:56.625Z,100.00
2022-08-18T01:27:44.083Z,100.00
2022-08-18T01:30:45.759Z,100.00
2022-08-18T01:33:38.077Z,100.00
2022-08-18T01:36:25.451Z,100.00
2022-08-18T01:39:13.589Z,100.00
2022-08-18T01:42:01.589Z,100.00
2022-08-18T01:44:51.454Z,100.00
2022-08-18T01:47:48.073Z,100.00
2022-08-18T01:50:45.755Z,100.00
2022-08-18T01:53:33.443Z,100.00
2022-08-18T01:56:20.592Z,100.00
2022-08-18T01:59:14.362Z,100.00
2022-08-18T02:02:02.185Z,100.00
2022-08-18T02:04:51.114Z,100.00
2022-08-18T02:07:38.455Z,100.00
2022-08-18T02:10:28.308Z,100.00
2022-08-18T02:13:15.574Z,100.00
2022-08-18T02:16:05.799Z,100.00
2022-08-18T02:18:53.622Z,100.00
2022-08-18T02:21:40.715Z,100.00
2022-08-18T02:24:27.974Z,100.00
2022-08-18T02:27:16.785Z,100.00
2022-08-18T02:30:10.286Z,100.00
2022-08-18T02:33:01.999Z,100.00
2022-08-18T02:35:54.928Z,100.00
2022-08-18T02:38:43.092Z,100.00
2022-08-18T02:41:31.475Z,100.00
2022-08-18T02:44:18.507Z,100.00
2022-08-18T02:47:06.274Z,100.00
2022-08-18T02:49:53.904Z,100.00
2022-08-18T02:52:41.505Z,100.00
2022-08-18T02:55:29.428Z,100.00
2022-08-18T02:58:16.993Z,100.00
2022-08-18T03:01:06.801Z,100.00
2022-08-18T03:03:54.897Z,100.00
2022-08-18T03:06:45.353Z,100.00
2022-08-18T03:09:34.541Z,100.00
2022-08-18T03:12:21.707Z,100.00
2022-08-18T03:15:09.163Z,100.00
2022-08-18T03:17:56.521Z,100.00
2022-08-18T03:20:46.907Z,100.00
2022-08-18T03:23:34.369Z,100.00
2022-08-18T03:26:23.321Z,100.00
2022-08-18T03:29:11.502Z,100.00
2022-08-18T03:31:58.960Z,100.00
2022-08-18T03:34:46.265Z,100.00
2022-08-18T03:37:33.690Z,100.00
2022-08-18T03:40:20.783Z,100.00
2022-08-18T03:43:33.427Z,100.00
2022-08-18T03:46:17.534Z,100.00
2022-08-18T03:49:04.723Z,100.00
2022-08-18T03:51:51.891Z,100.00
2022-08-18T03:54:39.845Z,100.00
2022-08-18T03:57:26.810Z,100.00
2022-08-18T04:00:14.475Z,100.00
2022-08-18T04:03:03.045Z,100.00
2022-08-18T04:05:50.041Z,100.00
2022-08-18T04:08:37.072Z,100.00
2022-08-18T04:11:25.265Z,100.00
2022-08-18T04:14:15.942Z,100.00
2022-08-18T04:17:03.342Z,100.00
2022-08-18T04:19:54.609Z,100.00
2022-08-18T04:22:41.963Z,100.00
2022-08-18T04:25:32.885Z,100.00
2022-08-18T04:28:20.290Z,100.00
2022-08-18T04:31:10.548Z,100.00
2022-08-18T04:33:59.793Z,100.00
2022-08-18T04:36:47.072Z,100.00
2022-08-18T04:39:34.341Z,100.00
2022-08-18T04:42:21.365Z,100.00
2022-08-18T04:45:08.677Z,100.00
2022-08-18T04:48:08.393Z,100.00
2022-08-18T04:51:06.206Z,100.00
2022-08-18T04:53:58.168Z,100.00
2022-08-18T04:56:45.292Z,100.00
2022-08-18T04:59:32.311Z,100.00
2022-08-18T05:02:21.589Z,100.00
2022-08-18T05:05:13.111Z,100.00
2022-08-18T05:08:00.208Z,100.00
2022-08-18T05:10:52.359Z,100.00
2022-08-18T05:13:39.584Z,100.00
2022-08-18T05:16:32.042Z,100.00
2022-08-18T05:19:25.995Z,100.00
2022-08-18T05:22:22.738Z,100.00
2022-08-18T05:25:17.614Z,100.00
2022-08-18T05:28:07.547Z,100.00
2022-08-18T05:30:54.610Z,100.00
2022-08-18T05:33:43.921Z,100.00
2022-08-18T05:36:59.140Z,100.00
2022-08-18T05:39:54.946Z,100.00
2022-08-18T05:42:43.028Z,100.00
2022-08-18T05:45:30.125Z,100.00
2022-08-18T05:48:17.791Z,100.00
2022-08-18T05:51:16.194Z,100.00
2022-08-18T05:54:23.339Z,100.00
2022-08-18T05:57:16.495Z,100.00
2022-08-18T06:00:06.374Z,100.00
2022-08-18T06:03:19.946Z,100.00
2022-08-18T06:06:14.400Z,100.00
2022-08-18T06:09:24.068Z,100.00
2022-08-18T06:12:20.089Z,100.00
2022-08-18T06:15:25.438Z,100.00
2022-08-18T06:18:33.663Z,100.00
2022-08-18T06:21:39.444Z,100.00
2022-08-18T06:24:51.619Z,100.00
2022-08-18T06:28:05.846Z,100.00
2022-08-18T06:31:09.564Z,100.00
2022-08-18T06:34:20.899Z,100.00
2022-08-18T06:37:35.241Z,100.00
2022-08-18T06:40:22.599Z,100.00
2022-08-18T06:43:15.965Z,100.00
2022-08-18T06:46:11.951Z,100.00
2022-08-18T06:49:05.833Z,100.00
2022-08-18T06:51:53.104Z,100.00
2022-08-18T06:54:42.809Z,100.00
2022-08-18T06:57:52.595Z,100.00
2022-08-18T07:01:03.518Z,100.00
2022-08-18T07:03:56.356Z,100.00
2022-08-18T07:06:43.795Z,100.00
2022-08-18T07:09:34.385Z,100.00
2022-08-18T07:12:30.503Z,100.00
2022-08-18T07:15:24.798Z,100.00
2022-08-18T07:18:13.195Z,100.00
2022-08-18T07:21:01.585Z,100.00
2022-08-18T07:24:23.607Z,100.00
2022-08-18T07:27:15.512Z,100.00
2022-08-18T07:30:04.134Z,100.00
2022-08-18T07:32:54.753Z,100.00
2022-08-18T07:35:56.617Z,100.00
2022-08-18T07:38:54.755Z,100.00
2022-08-18T07:41:52.883Z,100.00
2022-08-18T07:45:09.286Z,100.00
2022-08-18T07:48:20.803Z,100.00
2022-08-18T07:51:24.203Z,100.00
2022-08-18T07:54:49.082Z,99.22
2022-08-18T07:58:12.712Z,97.23
2022-08-18T08:01:18.770Z,95.95
2022-08-18T08:04:39.815Z,93.99
2022-08-18T08:07:32.282Z,94.93
2022-08-18T08:10:31.761Z,94.70
2022-08-18T08:13:54.551Z,92.91
2022-08-18T08:16:50.733Z,92.28
2022-08-18T08:20:10.701Z,92.84
2022-08-18T08:22:58.333Z,92.59
2022-08-18T08:26:00.852Z,91.75
2022-08-18T08:29:10.030Z,90.86
2022-08-18T08:32:17.259Z,88.29
2022-08-18T08:35:16.230Z,87.07
2022-08-18T08:38:43.044Z,85.84
2022-08-18T08:41:42.946Z,84.79
2022-08-18T08:44:35.142Z,84.32
2022-08-18T08:47:28.659Z,83.53
2022-08-18T08:50:24.974Z,82.75
2022-08-18T08:53:36.086Z,81.70
2022-08-18T08:56:30.237Z,81.05
2022-08-18T08:59:21.964Z,80.20
2022-08-18T09:02:48.278Z,79.69
2022-08-18T09:05:41.871Z,79.84
2022-08-18T09:08:40.460Z,79.15
2022-08-18T09:12:02.412Z,79.72
2022-08-18T09:15:01.628Z,79.28
2022-08-18T09:17:49.948Z,78.32
2022-08-18T09:20:52.177Z,79.02
2022-08-18T09:23:50.667Z,80.14
2022-08-18T09:26:47.206Z,80.15
2022-08-18T09:29:46.490Z,78.96
2022-08-18T09:32:53.092Z,78.01
2022-08-18T09:36:25.986Z,78.95
2022-08-18T09:39:54.573Z,77.93
2022-08-18T09:43:14.474Z,78.76
2022-08-18T09:46:12.421Z,77.62
2022-08-18T09:49:31.051Z,77.91
2022-08-18T09:52:26.934Z,77.62
2022-08-18T09:55:18.118Z,77.61
2022-08-18T09:58:18.603Z,77.83
2022-08-18T10:01:19.479Z,78.54
2022-08-18T10:04:15.353Z,79.59
2022-08-18T10:07:43.540Z,79.59
2022-08-18T10:11:02.570Z,79.58
2022-08-18T10:14:47.023Z,78.39
2022-08-18T10:17:58.493Z,78.15
2022-08-18T10:20:55.514Z,77.25
2022-08-18T10:24:08.108Z,76.35
2022-08-18T10:27:00.247Z,75.49
2022-08-18T10:29:51.049Z,73.93
2022-08-18T10:32:44.135Z,71.46
2022-08-18T10:35:37.905Z,69.94
2022-08-18T10:38:39.215Z,68.78
2022-08-18T10:41:30.975Z,69.24
2022-08-18T10:44:29.107Z,66.54
2022-08-18T10:47:24.793Z,64.31
2022-08-18T10:50:22.417Z,65.35
2022-08-18T10:56:40.710Z,68.09
2022-08-18T10:59:58.394Z,66.73
2022-08-18T11:06:26.284Z,66.17
2022-08-18T11:09:13.820Z,67.86
2022-08-18T11:12:03.338Z,68.54
2022-08-18T11:15:22.444Z,69.31
2022-08-18T11:18:13.554Z,69.52
2022-08-18T11:21:55.083Z,68.21
2022-08-18T11:24:44.960Z,65.81
2022-08-18T11:27:37.783Z,63.76
2022-08-18T11:30:37.033Z,63.41
2022-08-18T11:33:24.356Z,62.49
2022-08-18T11:36:11.855Z,61.83
2022-08-18T11:38:59.359Z,62.79
2022-08-18T11:41:50.287Z,61.48
2022-08-18T11:44:38.910Z,60.92
2022-08-18T11:47:28.056Z,58.11
2022-08-18T11:50:27.721Z,58.76
2022-08-18T11:53:25.956Z,59.97
2022-08-18T11:56:18.055Z,59.74
2022-08-18T11:59:08.355Z,60.94
2022-08-18T12:01:56.511Z,60.39
2022-08-18T12:04:50.528Z,60.86
2022-08-18T12:07:57.017Z,60.97
2022-08-18T12:10:46.085Z,61.50
2022-08-18T12:13:38.142Z,60.40
2022-08-18T12:16:37.201Z,59.01
2022-08-18T12:19:25.321Z,56.73
2022-08-18T12:22:18.728Z,56.72
2022-08-18T12:25:12.155Z,56.41
2022-08-18T12:27:59.479Z,55.83
2022-08-18T12:30:46.823Z,54.73
2022-08-18T12:33:48.364Z,53.17
2022-08-18T12:36:42.665Z,54.52
2022-08-18T12:39:31.384Z,55.39
2022-08-18T12:42:20.148Z,56.54
2022-08-18T12:45:07.727Z,56.34
2022-08-18T12:47:56.021Z,55.62
2022-08-18T12:50:53.945Z,53.06
2022-08-18T12:53:59.380Z,53.51
2022-08-18T12:56:50.431Z,52.42
2022-08-18T12:59:37.672Z,55.42
2022-08-18T13:02:24.846Z,55.51
2022-08-18T13:05:12.678Z,55.74
2022-08-18T13:08:04.356Z,54.97
2022-08-18T13:10:51.883Z,53.76
2022-08-18T13:13:45.258Z,53.03
2022-08-18T13:16:53.720Z,51.84
2022-08-18T13:19:42.277Z,51.61
2022-08-18T13:22:32.009Z,52.59
2022-08-18T13:25:33.203Z,52.23
2022-08-18T13:28:26.903Z,52.68
2022-08-18T13:31:17.612Z,52.89
2022-08-18T13:34:11.619Z,51.95
2022-08-18T13:37:02.252Z,52.16
2022-08-18T13:39:49.657Z,53.74
2022-08-18T13:42:57.861Z,53.90
2022-08-18T13:45:52.659Z,52.98
2022-08-18T13:48:41.717Z,53.38
2022-08-18T13:51:29.346Z,52.14
2022-08-18T13:54:31.257Z,52.51
2022-08-18T13:57:19.758Z,52.62
2022-08-18T14:00:18.167Z,52.67
2022-08-18T14:03:08.279Z,52.12
2022-08-18T14:06:01.636Z,50.79
2022-08-18T14:08:49.720Z,50.47
2022-08-18T14:11:37.982Z,50.25
2022-08-18T14:14:28.961Z,50.23
2022-08-18T14:17:17.743Z,49.71
2022-08-18T14:20:27.494Z,49.91
2022-08-18T14:23:33.610Z,49.01
2022-08-18T14:26:38.975Z,49.32
2022-08-18T14:29:46.717Z,48.84
2022-08-18T14:32:36.370Z,49.48
2022-08-18T14:35:33.165Z,51.02
2022-08-18T14:38:21.714Z,52.04
2022-08-18T14:41:13.877Z,52.49
2022-08-18T14:44:12.484Z,52.16
2022-08-18T14:47:00.830Z,51.94
2022-08-18T14:49:48.286Z,53.00
2022-08-18T14:52:35.249Z,54.03
2022-08-18T14:55:23.915Z,55.60
2022-08-18T14:58:11.454Z,56.93
2022-08-18T15:01:02.056Z,56.53
2022-08-18T15:03:55.910Z,58.49
2022-08-18T15:06:43.514Z,58.76
2022-08-18T15:09:43.978Z,58.72
2022-08-18T15:12:31.205Z,58.53
2022-08-18T15:15:19.086Z,57.62
2022-08-18T15:18:10.705Z,56.56
2022-08-18T15:21:34.885Z,55.70
2022-08-18T15:24:41.533Z,55.70
2022-08-18T15:27:42.411Z,54.86
2022-08-18T15:30:30.102Z,54.18
2022-08-18T15:33:18.296Z,53.84
2022-08-18T15:36:10.702Z,53.99
2022-08-18T15:39:05.741Z,53.65
2022-08-18T15:41:56.110Z,53.93
2022-08-18T15:44:44.788Z,54.17
2022-08-18T15:47:35.132Z,54.69
2022-08-18T15:50:34.773Z,55.95
2022-08-18T15:53:29.945Z,57.19
2022-08-18T15:56:22.529Z,56.62
2022-08-18T15:59:12.890Z,56.05
2022-08-18T16:02:01.064Z,55.86
2022-08-18T16:04:48.099Z,55.23
2022-08-18T16:07:41.185Z,54.82
2022-08-18T16:10:33.704Z,54.08
2022-08-18T16:13:22.185Z,53.94
2022-08-18T16:16:12.053Z,53.43
2022-08-18T16:18:59.007Z,53.04
2022-08-18T16:21:46.486Z,52.84
2022-08-18T16:24:33.614Z,52.88
2022-08-18T16:27:20.704Z,52.58
2022-08-18T16:30:09.903Z,52.13
2022-08-18T16:33:02.888Z,52.26
2022-08-18T16:35:51.599Z,52.55
2022-08-18T16:38:39.023Z,51.09
2022-08-18T16:41:26.795Z,51.14
2022-08-18T16:44:16.087Z,51.02
2022-08-18T16:47:04.937Z,50.64
2022-08-18T16:49:52.881Z,51.52
2022-08-18T16:52:45.702Z,51.97
2022-08-18T16:55:32.810Z,52.60
2022-08-18T16:58:38.101Z,52.14
2022-08-18T17:01:49.051Z,53.51
2022-08-18T17:04:36.502Z,54.32
2022-08-18T17:07:23.491Z,54.56
2022-08-18T17:10:10.746Z,54.56
2022-08-18T17:12:57.724Z,54.71
2022-08-18T17:15:49.759Z,54.33
2022-08-18T17:18:37.778Z,55.84
2022-08-18T17:21:27.366Z,56.68
2022-08-18T17:24:14.802Z,55.36
2022-08-18T17:27:27.003Z,56.01
2022-08-18T17:30:18.775Z,57.55
2022-08-18T17:33:13.097Z,57.30
2022-08-18T17:36:06.940Z,56.99
2022-08-18T17:39:03.632Z,57.88
2022-08-18T17:42:09.430Z,58.05
2022-08-18T17:45:00.438Z,58.40
2022-08-18T17:48:08.771Z,58.87
2022-08-18T17:51:34.236Z,60.51
2022-08-18T17:54:42.048Z,61.14
2022-08-18T17:57:32.621Z,61.49
2022-08-18T18:00:21.433Z,61.40
2022-08-18T18:03:10.702Z,61.80
2022-08-18T18:06:08.816Z,61.28
2022-08-18T18:09:02.371Z,61.85
2022-08-18T18:11:49.301Z,62.66
2022-08-18T18:14:39.535Z,63.39
2022-08-18T18:17:28.723Z,63.98
2022-08-18T18:20:32.909Z,64.92
2022-08-18T18:23:22.954Z,65.83
2022-08-18T18:26:34.068Z,65.64
2022-08-18T18:29:32.328Z,65.93
2022-08-18T18:32:38.471Z,66.70
2022-08-18T18:35:28.562Z,66.88
2022-08-18T18:38:29.619Z,67.07
2022-08-18T18:41:27.796Z,67.49
2022-08-18T18:44:16.254Z,67.40
2022-08-18T18:47:31.186Z,67.53
2022-08-18T18:50:55.795Z,67.92
2022-08-18T18:54:13.223Z,68.73
2022-08-18T18:57:00.715Z,69.41
2022-08-18T19:00:09.930Z,70.06
2022-08-18T19:02:56.870Z,70.52
2022-08-18T19:05:57.551Z,71.17
2022-08-18T19:09:03.322Z,72.14
2022-08-18T19:12:18.841Z,73.29
2022-08-18T19:15:16.794Z,74.22
2022-08-18T19:18:10.682Z,75.14
2022-08-18T19:22:04.855Z,76.05
2022-08-18T19:24:22.133Z,76.43
2022-08-18T19:27:23.630Z,77.29
2022-08-18T19:30:15.280Z,77.72
2022-08-18T19:33:04.626Z,78.06
2022-08-18T19:36:07.501Z,78.79
2022-08-18T19:39:11.997Z,79.16
2022-08-18T19:42:03.398Z,80.03
2022-08-18T19:45:15.819Z,80.42
2022-08-18T19:48:17.605Z,80.88
2022-08-18T19:51:16.047Z,81.86
2022-08-18T19:54:04.301Z,82.25
2022-08-18T19:57:10.054Z,82.84
2022-08-18T20:00:38.931Z,83.38
2022-08-18T20:03:52.748Z,84.28
2022-08-18T20:07:15.871Z,85.08
2022-08-18T20:10:28.590Z,84.92
2022-08-18T20:13:33.101Z,85.52
2022-08-18T20:16:44.224Z,85.06
2022-08-18T20:19:41.810Z,85.39
2022-08-18T20:22:32.898Z,86.16
2022-08-18T20:25:43.758Z,86.99
2022-08-18T20:28:37.693Z,87.74
2022-08-18T20:31:45.195Z,88.62
2022-08-18T20:34:35.295Z,88.97
2022-08-18T20:37:29.036Z,89.49
2022-08-18T20:40:49.657Z,90.15
2022-08-18T20:43:38.906Z,90.63
2022-08-18T20:46:47.926Z,90.78
2022-08-18T20:49:55.675Z,90.85
2022-08-18T20:53:01.653Z,90.98
2022-08-18T20:55:57.184Z,91.58
2022-08-18T20:59:04.024Z,91.97
2022-08-18T21:02:06.274Z,93.13
2022-08-18T21:04:57.201Z,93.46
2022-08-18T21:08:04.979Z,92.97
2022-08-18T21:10:54.928Z,93.39
2022-08-18T21:13:41.937Z,93.79
2022-08-18T21:16:42.089Z,94.52
2022-08-18T21:19:29.456Z,94.62
2022-08-18T21:22:19.556Z,94.78
2022-08-18T21:25:12.340Z,94.71
2022-08-18T21:28:02.339Z,94.79
2022-08-18T21:31:42.574Z,94.64
2022-08-18T21:34:08.703Z,93.78
2022-08-18T21:36:58.632Z,93.88
2022-08-18T21:39:58.603Z,94.83
2022-08-18T21:42:46.086Z,95.59
2022-08-18T21:45:48.462Z,96.44
2022-08-18T21:48:46.833Z,95.82
2022-08-18T21:51:46.010Z,95.78
2022-08-18T21:54:34.757Z,95.69
2022-08-18T21:57:27.849Z,95.59
2022-08-18T22:00:19.062Z,95.84
2022-08-18T22:03:09.102Z,96.19
2022-08-18T22:06:13.929Z,96.56
2022-08-18T22:09:33.526Z,96.37
2022-08-18T22:12:49.128Z,96.77
2022-08-18T22:15:42.669Z,97.52
2022-08-18T22:18:36.666Z,98.00
2022-08-18T22:21:38.042Z,96.90
2022-08-18T22:24:38.732Z,96.50
2022-08-18T22:27:27.113Z,96.53
2022-08-18T22:30:14.122Z,96.85
2022-08-18T22:33:01.114Z,97.00
2022-08-18T22:35:57.737Z,96.77
2022-08-18T22:38:45.853Z,97.27
2022-08-18T22:41:34.170Z,97.48
2022-08-18T22:44:21.374Z,97.76
2022-08-18T22:47:09.315Z,98.16
2022-08-18T22:49:56.311Z,98.57
2022-08-18T22:52:48.356Z,99.28
2022-08-18T22:55:35.554Z,100.00
2022-08-18T22:58:28.221Z,99.92
2022-08-18T23:01:15.600Z,100.00
2022-08-18T23:04:03.206Z,100.00
2022-08-18T23:06:53.759Z,100.00
2022-08-18T23:09:40.974Z,100.00
2022-08-18T23:12:28.098Z,100.00
2022-08-18T23:15:17.122Z,100.00
2022-08-18T23:18:04.179Z,100.00
2022-08-18T23:20:57.559Z,100.00
2022-08-18T23:23:44.931Z,100.00
2022-08-18T23:26:32.377Z,100.00
2022-08-18T23:29:20.866Z,100.00
2022-08-18T23:32:08.023Z,100.00
2022-08-18T23:34:55.897Z,100.00
2022-08-18T23:37:42.918Z,100.00
2022-08-18T23:40:30.697Z,100.00
2022-08-18T23:43:20.197Z,100.00
2022-08-18T23:46:19.418Z,100.00
2022-08-18T23:49:10.674Z,100.00
2022-08-18T23:51:59.178Z,100.00
2022-08-18T23:54:46.218Z,100.00
2022-08-18T23:57:33.277Z,100.00
